createdAt,value
2018-06-30T00:01:42.925Z,32.10
2018-06-30T00:04:11.280Z,26.63
2018-06-30T00:06:40.361Z,25.17
2018-06-30T00:09:12.543Z,25.10
2018-06-30T00:11:40.115Z,31.27
2018-06-30T00:14:08.008Z,25.47
2018-06-30T00:16:40.522Z,26.40
2018-06-30T00:19:08.091Z,26.90
2018-06-30T00:21:36.326Z,25.88
2018-06-30T00:24:05.311Z,26.63
2018-06-30T00:26:33.263Z,30.73
2018-06-30T00:29:02.203Z,28.23
2018-06-30T00:31:29.947Z,25.57
2018-06-30T00:33:57.360Z,24.90
2018-06-30T00:36:24.822Z,30.27
2018-06-30T00:38:52.360Z,28.50
2018-06-30T00:41:24.607Z,28.67
2018-06-30T00:43:53.581Z,25.88
2018-06-30T00:46:25.918Z,27.20
2018-06-30T00:48:53.433Z,28.90
2018-06-30T00:51:20.916Z,25.50
2018-06-30T00:53:48.967Z,28.73
2018-06-30T00:56:22.516Z,27.50
2018-06-30T00:58:49.984Z,29.52
2018-06-30T01:01:17.859Z,26.52
2018-06-30T01:03:45.600Z,29.20
2018-06-30T01:06:17.988Z,25.60
2018-06-30T01:08:46.782Z,27.97
2018-06-30T01:11:14.611Z,25.70
2018-06-30T01:13:42.092Z,28.47
2018-06-30T01:16:09.862Z,25.70
2018-06-30T01:18:40.156Z,28.30
2018-06-30T01:21:07.656Z,28.32
2018-06-30T01:23:35.196Z,29.57
2018-06-30T01:26:03.594Z,30.77
2018-06-30T01:28:31.036Z,27.37
2018-06-30T01:30:58.777Z,31.00
2018-06-30T01:33:26.609Z,29.17
2018-06-30T01:35:56.858Z,30.57
2018-06-30T01:38:24.935Z,27.40
2018-06-30T01:40:52.647Z,25.50
2018-06-30T01:43:20.621Z,26.23
2018-06-30T01:45:48.540Z,29.90
2018-06-30T01:48:17.176Z,29.87
2018-06-30T01:50:45.463Z,26.68
2018-06-30T01:53:12.937Z,27.62
2018-06-30T01:55:41.401Z,26.02
2018-06-30T01:58:11.455Z,25.48
2018-06-30T02:00:39.938Z,24.43
2018-06-30T02:03:09.051Z,26.97
2018-06-30T02:05:36.520Z,28.30
2018-06-30T02:08:04.042Z,26.15
2018-06-30T02:10:32.054Z,26.50
2018-06-30T02:13:00.391Z,26.95
2018-06-30T02:15:27.859Z,24.10
2018-06-30T02:18:00.910Z,26.70
2018-06-30T02:20:34.646Z,26.68
2018-06-30T02:23:02.478Z,29.92
2018-06-30T02:25:30.324Z,28.98
2018-06-30T02:27:58.114Z,27.52
2018-06-30T02:30:26.689Z,29.95
2018-06-30T02:32:54.892Z,27.00
2018-06-30T02:48:22.560Z,25.50
2018-06-30T02:50:49.998Z,26.68
2018-06-30T02:53:18.492Z,23.12
2018-06-30T02:55:45.902Z,24.95
2018-06-30T02:58:14.913Z,25.37
2018-06-30T03:00:42.690Z,26.33
2018-06-30T03:03:10.970Z,25.30
2018-06-30T03:05:38.852Z,26.07
2018-06-30T03:08:06.278Z,25.57
2018-06-30T03:10:33.726Z,23.25
2018-06-30T03:13:02.091Z,22.98
2018-06-30T03:15:36.163Z,22.82
2018-06-30T03:18:04.717Z,25.12
2018-06-30T03:20:38.707Z,22.17
2018-06-30T03:23:13.301Z,20.27
2018-06-30T03:25:41.618Z,20.90
2018-06-30T03:28:09.571Z,26.12
2018-06-30T03:30:38.331Z,21.42
2018-06-30T03:33:05.800Z,23.22
2018-06-30T03:35:33.795Z,21.27
2018-06-30T03:38:04.155Z,21.82
2018-06-30T03:40:32.111Z,19.27
2018-06-30T03:42:59.626Z,21.93
2018-06-30T03:45:27.174Z,19.80
2018-06-30T03:47:54.646Z,21.80
2018-06-30T04:00:08.002Z,19.92
2018-06-30T04:02:35.531Z,19.50
2018-06-30T04:05:03.738Z,19.32
2018-06-30T04:07:34.468Z,19.23
2018-06-30T04:19:46.916Z,19.67
2018-06-30T04:22:22.134Z,20.35
2018-06-30T04:24:54.161Z,20.37
2018-06-30T04:27:25.832Z,21.17
2018-06-30T04:29:53.750Z,18.92
2018-06-30T04:32:22.034Z,18.80
2018-06-30T04:34:50.446Z,20.50
2018-06-30T04:37:18.275Z,21.45
2018-06-30T04:39:45.911Z,20.20
2018-06-30T04:42:13.880Z,18.17
2018-06-30T04:44:45.323Z,17.10
2018-06-30T04:47:13.465Z,18.20
2018-06-30T04:49:44.051Z,17.47
2018-06-30T04:52:14.508Z,20.27
2018-06-30T04:54:43.386Z,18.77
2018-06-30T04:57:11.953Z,17.10
2018-06-30T05:09:24.463Z,16.90
2018-06-30T05:11:52.050Z,21.03
2018-06-30T05:14:19.956Z,16.97
2018-06-30T05:16:48.127Z,18.07
2018-06-30T05:19:15.606Z,18.20
2018-06-30T05:21:43.092Z,17.20
2018-06-30T05:33:56.212Z,16.17
2018-06-30T05:36:25.458Z,16.40
2018-06-30T05:38:53.105Z,16.77
2018-06-30T05:41:24.382Z,16.70
2018-06-30T05:43:52.259Z,17.30
2018-06-30T05:46:19.667Z,17.53
2018-06-30T05:48:47.327Z,16.60
2018-06-30T05:51:14.630Z,16.00
2018-06-30T05:53:41.950Z,16.17
2018-06-30T05:56:10.118Z,17.07
2018-06-30T05:58:37.471Z,16.50
2018-06-30T06:01:04.905Z,16.37
2018-06-30T06:03:32.237Z,17.10
2018-06-30T06:05:59.620Z,16.10
2018-06-30T06:08:27.033Z,17.20
2018-06-30T06:10:54.358Z,17.03
2018-06-30T06:13:21.663Z,16.30
2018-06-30T06:15:49.017Z,17.27
2018-06-30T06:18:16.333Z,16.70
2018-06-30T06:20:43.756Z,16.80
2018-06-30T06:23:11.095Z,16.50
2018-06-30T06:25:38.387Z,17.47
2018-06-30T06:28:05.807Z,16.87
2018-06-30T06:30:33.083Z,16.07
2018-06-30T06:33:00.372Z,15.57
2018-06-30T06:35:27.691Z,15.87
2018-06-30T06:37:55.032Z,16.40
2018-06-30T06:40:22.410Z,15.90
2018-06-30T06:42:49.739Z,16.47
2018-06-30T06:45:17.192Z,15.20
2018-06-30T06:47:44.564Z,15.70
2018-06-30T06:50:11.970Z,15.90
2018-06-30T06:52:39.330Z,16.03
2018-06-30T06:55:07.345Z,16.80
2018-06-30T06:57:34.676Z,17.60
2018-06-30T07:00:02.016Z,15.57
2018-06-30T07:02:29.312Z,18.43
2018-06-30T07:04:56.644Z,16.70
2018-06-30T07:07:23.944Z,18.13
2018-06-30T07:09:51.258Z,16.90
2018-06-30T07:12:18.611Z,17.10
2018-06-30T07:14:46.045Z,16.77
2018-06-30T07:17:13.424Z,16.90
2018-06-30T07:19:40.736Z,17.70
2018-06-30T07:22:08.149Z,16.77
2018-06-30T07:24:35.466Z,17.47
2018-06-30T07:27:02.815Z,18.27
2018-06-30T07:29:30.169Z,17.33
2018-06-30T07:31:57.521Z,17.27
2018-06-30T07:34:24.825Z,16.47
2018-06-30T07:36:52.172Z,16.97
2018-06-30T07:39:19.489Z,18.37
2018-06-30T07:41:46.852Z,16.77
2018-06-30T07:44:14.187Z,17.10
2018-06-30T07:46:41.470Z,17.00
2018-06-30T07:49:08.785Z,16.20
2018-06-30T07:51:36.091Z,16.13
2018-06-30T07:54:03.469Z,17.30
2018-06-30T07:56:30.836Z,17.20
2018-06-30T07:58:58.189Z,18.10
2018-06-30T08:01:25.540Z,16.50
2018-06-30T08:03:53.195Z,16.70
2018-06-30T08:06:20.720Z,17.00
2018-06-30T08:08:48.411Z,19.13
2018-06-30T08:11:15.742Z,16.67
2018-06-30T08:13:43.146Z,16.93
2018-06-30T08:16:10.505Z,16.10
2018-06-30T08:18:37.856Z,16.33
2018-06-30T08:21:05.240Z,15.80
2018-06-30T08:23:32.518Z,15.57
2018-06-30T08:25:59.933Z,14.93
2018-06-30T08:28:27.304Z,16.63
2018-06-30T08:30:54.689Z,16.17
2018-06-30T08:33:22.097Z,15.70
2018-06-30T08:35:49.431Z,14.70
2018-06-30T08:38:16.798Z,15.50
2018-06-30T08:40:44.140Z,14.67
2018-06-30T08:43:11.994Z,14.80
2018-06-30T08:45:39.349Z,14.23
2018-06-30T08:48:06.895Z,14.70
2018-06-30T08:50:34.213Z,14.80
2018-06-30T08:53:01.493Z,14.63
2018-06-30T08:55:28.883Z,17.00
2018-06-30T08:57:56.230Z,15.10
2018-06-30T09:00:23.627Z,15.83
2018-06-30T09:02:50.884Z,15.00
2018-06-30T09:05:18.249Z,15.17
2018-06-30T09:07:45.599Z,16.40
2018-06-30T09:10:12.930Z,14.93
2018-06-30T09:12:40.329Z,15.37
2018-06-30T09:15:07.702Z,14.73
2018-06-30T09:17:35.007Z,17.20
2018-06-30T09:20:02.380Z,14.93
2018-06-30T09:22:29.736Z,15.40
2018-06-30T09:24:57.299Z,15.67
2018-06-30T09:27:24.604Z,15.30
2018-06-30T09:29:51.907Z,15.47
2018-06-30T09:32:19.219Z,14.67
2018-06-30T09:34:46.603Z,15.77
2018-06-30T09:37:14.085Z,14.73
2018-06-30T09:39:41.440Z,16.77
2018-06-30T09:42:08.819Z,15.33
2018-06-30T09:44:36.259Z,15.83
2018-06-30T09:47:03.561Z,16.20
2018-06-30T09:49:30.868Z,15.00
2018-06-30T09:51:58.311Z,15.07
2018-06-30T09:54:25.751Z,15.17
2018-06-30T09:56:53.081Z,15.33
2018-06-30T09:59:20.486Z,15.17
2018-06-30T10:01:48.003Z,15.97
2018-06-30T10:04:15.424Z,17.50
2018-06-30T10:06:43.777Z,15.07
2018-06-30T10:09:13.856Z,15.80
2018-06-30T10:11:42.227Z,16.40
2018-06-30T10:14:14.067Z,18.87
2018-06-30T10:16:41.591Z,15.73
2018-06-30T10:19:14.120Z,15.90
2018-06-30T10:21:41.672Z,15.33
2018-06-30T10:24:09.488Z,15.67
2018-06-30T10:26:41.567Z,15.70
2018-06-30T10:29:09.894Z,17.03
2018-06-30T10:31:37.461Z,15.47
2018-06-30T10:43:49.917Z,15.20
2018-06-30T10:46:23.854Z,16.10
2018-06-30T10:48:51.567Z,17.63
2018-06-30T10:51:20.056Z,15.57
2018-06-30T10:53:47.462Z,15.10
2018-06-30T10:56:16.034Z,16.10
2018-06-30T10:58:45.066Z,15.80
2018-06-30T11:01:12.563Z,15.37
2018-06-30T11:13:29.451Z,15.37
2018-06-30T11:16:06.260Z,15.40
2018-06-30T11:18:35.168Z,15.93
2018-06-30T11:21:02.654Z,15.90
2018-06-30T11:23:30.348Z,15.67
2018-06-30T11:25:58.632Z,15.27
2018-06-30T11:28:27.382Z,16.00
2018-06-30T11:30:54.765Z,18.00
2018-06-30T11:33:22.220Z,15.50
2018-06-30T11:35:50.486Z,15.27
2018-06-30T11:38:18.258Z,15.40
2018-06-30T11:40:50.133Z,16.00
2018-06-30T11:43:17.529Z,15.60
2018-06-30T11:45:46.631Z,18.03
2018-06-30T11:48:14.409Z,16.13
2018-06-30T11:50:42.604Z,15.17
2018-06-30T12:02:56.375Z,16.10
2018-06-30T12:05:23.963Z,16.17
2018-06-30T12:07:53.080Z,15.80
2018-06-30T12:10:24.748Z,16.53
2018-06-30T12:12:53.249Z,15.43
2018-06-30T12:15:32.199Z,16.67
2018-06-30T12:18:00.783Z,15.87
2018-06-30T12:20:28.299Z,15.50
2018-06-30T12:22:55.778Z,15.27
2018-06-30T12:25:24.448Z,16.10
2018-06-30T12:27:51.930Z,15.73
2018-06-30T12:30:19.474Z,15.50
2018-06-30T12:32:47.567Z,15.37
2018-06-30T12:35:15.030Z,15.87
2018-06-30T12:37:42.375Z,15.67
2018-06-30T12:40:09.769Z,15.87
2018-06-30T12:42:37.183Z,15.43
2018-06-30T12:45:04.760Z,15.80
2018-06-30T12:47:32.914Z,15.57
2018-06-30T12:50:00.405Z,15.93
2018-06-30T12:52:31.780Z,15.67
2018-06-30T12:54:59.916Z,15.47
2018-06-30T12:57:27.369Z,15.33
2018-06-30T12:59:54.848Z,15.80
2018-06-30T13:02:22.290Z,17.60
2018-06-30T13:04:49.711Z,16.87
2018-06-30T13:07:17.051Z,16.80
2018-06-30T13:09:44.549Z,18.03
2018-06-30T13:12:14.061Z,15.60
2018-06-30T13:14:41.415Z,16.00
2018-06-30T13:17:12.736Z,15.33
2018-06-30T13:19:40.835Z,15.27
2018-06-30T13:22:08.284Z,15.50
2018-06-30T13:24:35.690Z,15.87
2018-06-30T13:27:04.056Z,15.63
2018-06-30T13:29:31.480Z,15.70
2018-06-30T13:31:59.300Z,15.57
2018-06-30T13:34:26.831Z,15.93
2018-06-30T13:36:54.772Z,15.20
2018-06-30T13:39:22.953Z,16.23
2018-06-30T13:41:51.315Z,15.07
2018-06-30T13:44:18.997Z,16.00
2018-06-30T13:46:46.400Z,17.30
2018-06-30T13:49:18.623Z,15.50
2018-06-30T13:51:46.110Z,15.17
2018-06-30T13:54:13.935Z,16.00
2018-06-30T13:56:41.418Z,15.13
2018-06-30T13:59:09.629Z,15.60
2018-06-30T14:01:36.989Z,15.33
2018-06-30T14:04:04.511Z,16.60
2018-06-30T14:06:32.008Z,15.13
2018-06-30T14:08:59.445Z,15.43
2018-06-30T14:11:26.875Z,15.60
2018-06-30T14:13:54.268Z,15.27
2018-06-30T14:16:22.621Z,16.17
2018-06-30T14:18:51.287Z,15.83
2018-06-30T14:21:18.730Z,16.20
2018-06-30T14:23:46.715Z,19.23
2018-06-30T14:26:14.152Z,15.63
2018-06-30T14:28:41.743Z,15.33
2018-06-30T14:31:09.156Z,16.10
2018-06-30T14:33:36.603Z,15.67
2018-06-30T14:36:05.209Z,16.97
2018-06-30T14:38:32.711Z,17.57
2018-06-30T14:50:45.247Z,15.40
2018-06-30T14:53:12.684Z,16.10
2018-06-30T14:55:40.735Z,15.43
2018-06-30T14:58:08.129Z,15.23
2018-06-30T15:00:35.595Z,16.17
2018-06-30T15:03:03.050Z,15.50
2018-06-30T15:05:30.788Z,16.10
2018-06-30T15:07:58.616Z,16.10
2018-06-30T15:10:30.503Z,15.33
2018-06-30T15:12:57.950Z,15.07
2018-06-30T15:15:25.930Z,15.50
2018-06-30T15:17:59.907Z,15.23
2018-06-30T15:20:31.512Z,16.07
2018-06-30T15:23:00.136Z,16.50
2018-06-30T15:25:29.180Z,16.57
2018-06-30T15:28:01.673Z,15.83
2018-06-30T15:30:29.477Z,15.43
2018-06-30T15:32:57.241Z,16.27
2018-06-30T15:35:24.645Z,15.57
2018-06-30T15:37:53.700Z,16.70
2018-06-30T15:40:21.722Z,16.80
2018-06-30T15:42:49.169Z,16.83
2018-06-30T15:45:17.322Z,16.73
2018-06-30T15:47:44.730Z,16.77
2018-06-30T15:50:12.193Z,15.33
2018-06-30T15:52:40.048Z,16.30
2018-06-30T15:55:09.207Z,15.77
2018-06-30T15:57:37.224Z,15.50
2018-06-30T16:00:06.131Z,15.63
2018-06-30T16:02:33.778Z,15.50
2018-06-30T16:05:01.896Z,16.70
2018-06-30T16:07:29.549Z,15.53
2018-06-30T16:09:57.021Z,15.67
2018-06-30T16:12:24.751Z,19.13
2018-06-30T16:14:52.106Z,16.97
2018-06-30T16:17:20.779Z,15.80
2018-06-30T16:19:48.325Z,15.37
2018-06-30T16:22:15.687Z,16.17
2018-06-30T16:24:43.068Z,15.43
2018-06-30T16:27:10.498Z,15.47
2018-06-30T16:29:37.882Z,16.03
2018-06-30T16:32:05.349Z,17.40
2018-06-30T16:34:33.476Z,17.80
2018-06-30T16:37:03.279Z,16.43
2018-06-30T16:39:30.913Z,17.73
2018-06-30T16:41:58.313Z,19.77
2018-06-30T16:44:25.677Z,17.10
2018-06-30T16:46:54.366Z,15.73
2018-06-30T16:49:21.894Z,15.70
2018-06-30T16:51:49.355Z,15.77
2018-06-30T16:54:16.822Z,16.13
2018-06-30T16:56:44.484Z,16.00
2018-06-30T17:08:56.942Z,16.20
2018-06-30T17:11:24.374Z,17.37
2018-06-30T17:13:52.441Z,17.40
2018-06-30T17:16:25.164Z,16.47
2018-06-30T17:18:53.346Z,17.00
2018-06-30T17:21:20.765Z,15.83
2018-06-30T17:23:48.123Z,16.10
2018-06-30T17:26:15.561Z,15.97
2018-06-30T17:28:43.053Z,15.97
2018-06-30T17:31:10.444Z,17.27
2018-06-30T17:33:37.867Z,17.23
2018-06-30T17:36:05.322Z,17.27
2018-06-30T17:38:32.747Z,16.07
2018-06-30T17:41:02.158Z,16.40
2018-06-30T17:43:29.564Z,17.17
2018-06-30T17:45:57.128Z,16.10
2018-06-30T17:48:29.302Z,19.67
2018-06-30T17:50:56.715Z,16.70
2018-06-30T17:53:24.244Z,17.10
2018-06-30T17:55:52.157Z,16.90
2018-06-30T17:58:19.636Z,15.97
2018-06-30T18:00:47.030Z,16.97
2018-06-30T18:03:14.428Z,16.07
2018-06-30T18:05:41.897Z,16.07
2018-06-30T18:08:09.944Z,16.40
2018-06-30T18:10:37.287Z,17.93
2018-06-30T18:13:04.653Z,18.60
2018-06-30T18:15:31.999Z,16.90
2018-06-30T18:17:59.326Z,17.20
2018-06-30T18:20:26.644Z,16.90
2018-06-30T18:22:54.160Z,17.53
2018-06-30T18:25:21.492Z,16.37
2018-06-30T18:27:48.830Z,16.63
2018-06-30T18:30:16.201Z,16.37
2018-06-30T18:32:43.492Z,17.10
2018-06-30T18:35:11.544Z,17.00
2018-06-30T18:37:38.947Z,16.77
2018-06-30T18:40:06.664Z,17.07
2018-06-30T18:42:34.009Z,16.17
2018-06-30T18:45:01.385Z,16.90
2018-06-30T18:47:28.752Z,17.30
2018-06-30T18:49:56.104Z,16.40
2018-06-30T18:52:23.521Z,16.33
2018-06-30T18:54:50.897Z,16.33
2018-06-30T18:57:18.511Z,17.43
2018-06-30T18:59:45.842Z,16.33
2018-06-30T19:02:13.528Z,17.27
2018-06-30T19:04:40.847Z,16.43
2018-06-30T19:07:08.232Z,16.70
2018-06-30T19:09:39.825Z,17.37
2018-06-30T19:12:07.210Z,16.97
2018-06-30T19:14:34.630Z,16.40
2018-06-30T19:17:01.972Z,17.40
2018-06-30T19:19:29.378Z,16.67
2018-06-30T19:21:56.794Z,16.93
2018-06-30T19:24:24.184Z,17.93
2018-06-30T19:26:51.607Z,17.00
2018-06-30T19:29:18.947Z,17.57
2018-06-30T19:31:46.482Z,17.00
2018-06-30T19:34:13.999Z,16.67
2018-06-30T19:36:41.581Z,18.23
2018-06-30T19:39:10.295Z,16.87
2018-06-30T19:41:37.698Z,16.67
2018-06-30T19:44:05.281Z,17.40
2018-06-30T19:46:32.700Z,19.20
2018-06-30T19:49:00.449Z,16.83
2018-06-30T19:51:27.859Z,17.40
2018-06-30T19:53:55.357Z,17.50
2018-06-30T19:56:22.763Z,18.33
2018-06-30T19:58:50.413Z,18.57
2018-06-30T20:01:17.833Z,17.20
2018-06-30T20:03:45.214Z,17.40
2018-06-30T20:06:12.604Z,17.10
2018-06-30T20:08:40.094Z,17.23
2018-06-30T20:11:08.180Z,17.90
2018-06-30T20:13:35.591Z,17.17
2018-06-30T20:16:03.013Z,16.97
2018-06-30T20:18:31.133Z,18.53
2018-06-30T20:20:58.651Z,17.97
2018-06-30T20:23:26.050Z,16.80
2018-06-30T20:25:53.591Z,18.20
2018-06-30T20:28:21.058Z,17.60
2018-06-30T20:30:48.552Z,17.83
2018-06-30T20:33:15.939Z,16.63
2018-06-30T20:35:43.393Z,16.90
2018-06-30T20:38:10.866Z,16.67
2018-06-30T20:40:38.312Z,16.97
2018-06-30T20:43:05.789Z,16.57
2018-06-30T20:45:33.400Z,17.00
2018-06-30T20:48:00.910Z,16.40
2018-06-30T20:50:28.321Z,16.20
2018-06-30T20:52:56.119Z,16.93
2018-06-30T20:55:23.575Z,16.70
2018-06-30T20:57:51.097Z,15.80
2018-06-30T21:00:18.630Z,15.70
2018-06-30T21:02:46.046Z,16.20
2018-06-30T21:05:13.560Z,17.00
2018-06-30T21:07:40.969Z,18.23
2018-06-30T21:10:09.028Z,15.83
2018-06-30T21:12:36.455Z,16.73
2018-06-30T21:15:04.033Z,15.80
2018-06-30T21:17:31.420Z,16.97
2018-06-30T21:19:58.855Z,15.00
2018-06-30T21:22:26.198Z,15.70
2018-06-30T21:24:53.661Z,15.87
2018-06-30T21:27:21.074Z,14.80
2018-06-30T21:29:49.469Z,17.17
2018-06-30T21:32:16.882Z,15.98
2018-06-30T21:34:44.279Z,16.50
2018-06-30T21:37:11.704Z,15.57
2018-06-30T21:39:39.104Z,16.60
2018-06-30T21:42:06.570Z,15.20
2018-06-30T21:44:33.964Z,17.50
2018-06-30T21:47:01.395Z,17.10
2018-06-30T21:49:28.764Z,15.30
2018-06-30T21:51:56.134Z,15.07
2018-06-30T21:54:23.470Z,15.45
2018-06-30T21:56:51.056Z,17.45
2018-06-30T21:59:18.502Z,15.50
2018-06-30T22:01:46.722Z,15.60
2018-06-30T22:04:14.644Z,15.17
2018-06-30T22:06:42.167Z,15.35
2018-06-30T22:09:10.474Z,16.33
2018-06-30T22:11:38.146Z,15.53
2018-06-30T22:14:05.579Z,15.80
2018-06-30T22:16:32.976Z,15.47
2018-06-30T22:19:00.920Z,16.10
2018-06-30T22:21:28.317Z,15.30
2018-06-30T22:23:55.726Z,15.43
2018-06-30T22:26:23.540Z,15.93
2018-06-30T22:28:50.939Z,16.62
2018-06-30T22:31:19.059Z,15.80
2018-06-30T22:33:46.453Z,15.48
2018-06-30T22:36:14.003Z,15.50
2018-06-30T22:38:41.401Z,15.30
2018-06-30T22:41:08.772Z,15.23
2018-06-30T22:43:36.608Z,15.20
2018-06-30T22:46:04.324Z,16.00
2018-06-30T22:48:31.682Z,15.97
2018-06-30T22:50:59.108Z,14.57
2018-06-30T22:53:26.545Z,20.12
2018-06-30T22:55:53.938Z,17.47
2018-06-30T22:58:21.586Z,15.13
2018-06-30T23:00:49.016Z,15.50
2018-06-30T23:03:16.311Z,14.43
2018-06-30T23:05:43.675Z,16.60
2018-06-30T23:08:11.011Z,15.80
2018-06-30T23:10:38.358Z,16.12
2018-06-30T23:13:05.938Z,14.47
2018-06-30T23:15:33.316Z,15.15
2018-06-30T23:18:00.902Z,14.73
2018-06-30T23:20:28.237Z,15.55
2018-06-30T23:22:57.517Z,16.07
2018-06-30T23:25:26.398Z,15.63
2018-06-30T23:27:54.548Z,18.85
2018-06-30T23:30:21.982Z,16.20
2018-06-30T23:32:49.578Z,15.83
2018-06-30T23:35:16.932Z,15.20
2018-06-30T23:37:44.299Z,17.70
2018-06-30T23:40:11.662Z,15.88
2018-06-30T23:42:47.648Z,15.90
2018-06-30T23:45:15.069Z,15.85
2018-06-30T23:47:42.619Z,14.55
2018-06-30T23:50:10.740Z,15.65
2018-06-30T23:52:38.076Z,16.10
2018-06-30T23:55:05.741Z,14.38
2018-06-30T23:57:33.064Z,15.47
